XNO1210 EDDB-EGLL
Flight info
| Callsign | XNO1210 |
|---|---|
| Flight time | 1h 26m |
| Altitude | 40000 |
| Route | SUKIP4Z SUKIP Y206 BUREL P203 HLZ L980 ROBEG DCT ABNED L980 LOGAN |
| Aircraft | A35K/H-SDE2E3GHIJ3J4J5LM1ORWXY/LB1D1 |
Departure
| Time | 2026-05-07 06:07 |
|---|---|
| Airport | Berlin Brandenburg Airport (EDDB) |
Arrival
| Time | 2026-05-07 07:33 |
|---|---|
| Airport | London Heathrow Airport (EGLL) |
| Time | Latitude | Longitude | Altitude | Speed | Heading |
|---|---|---|---|---|---|
| 2026-05-07 05:48 | 52.36042 | 13.50972 | 161 ft | 0 kts | 5° |
| 2026-05-07 05:57 | 52.36040 | 13.50972 | 161 ft | 2 kts | 5° |
| 2026-05-07 05:57 | 52.36014 | 13.50969 | 160 ft | 4 kts | 5° |
| 2026-05-07 05:57 | 52.35989 | 13.50966 | 160 ft | 4 kts | 358° |
| 2026-05-07 05:58 | 52.35965 | 13.50974 | 160 ft | 4 kts | 316° |
| 2026-05-07 05:58 | 52.35956 | 13.51008 | 160 ft | 4 kts | 257° |
| 2026-05-07 05:58 | 52.35965 | 13.51048 | 160 ft | 4 kts | 242° |
| 2026-05-07 05:58 | 52.35979 | 13.51087 | 160 ft | 4 kts | 243° |
| 2026-05-07 05:59 | 52.35984 | 13.51104 | 160 ft | 0 kts | 249° |
| 2026-05-07 06:00 | 52.35982 | 13.51099 | 160 ft | 2 kts | 249° |
| 2026-05-07 06:01 | 52.35972 | 13.51054 | 160 ft | 6 kts | 249° |
| 2026-05-07 06:01 | 52.35950 | 13.50962 | 160 ft | 11 kts | 249° |
| 2026-05-07 06:01 | 52.35917 | 13.50826 | 160 ft | 15 kts | 246° |
| 2026-05-07 06:01 | 52.35826 | 13.50759 | 160 ft | 16 kts | 206° |
| 2026-05-07 06:02 | 52.35765 | 13.50593 | 160 ft | 19 kts | 247° |
| 2026-05-07 06:02 | 52.35713 | 13.50372 | 160 ft | 22 kts | 249° |
| 2026-05-07 06:02 | 52.35652 | 13.50117 | 160 ft | 26 kts | 249° |
| 2026-05-07 06:02 | 52.35584 | 13.49832 | 160 ft | 28 kts | 249° |
| 2026-05-07 06:03 | 52.35509 | 13.49518 | 160 ft | 31 kts | 249° |
| 2026-05-07 06:03 | 52.35429 | 13.49178 | 160 ft | 33 kts | 249° |
| 2026-05-07 06:03 | 52.35342 | 13.48812 | 160 ft | 36 kts | 249° |
| 2026-05-07 06:03 | 52.35250 | 13.48424 | 160 ft | 37 kts | 249° |
| 2026-05-07 06:04 | 52.35153 | 13.48018 | 160 ft | 39 kts | 249° |
| 2026-05-07 06:04 | 52.35055 | 13.47598 | 160 ft | 31 kts | 249° |
| 2026-05-07 06:04 | 52.34985 | 13.47308 | 160 ft | 29 kts | 249° |
| 2026-05-07 06:04 | 52.34909 | 13.46989 | 160 ft | 29 kts | 249° |
| 2026-05-07 06:05 | 52.34832 | 13.46738 | 160 ft | 20 kts | 210° |
| 2026-05-07 06:05 | 52.34694 | 13.46774 | 160 ft | 20 kts | 159° |
| 2026-05-07 06:05 | 52.34584 | 13.46852 | 160 ft | 13 kts | 151° |
| 2026-05-07 06:05 | 52.34575 | 13.46986 | 160 ft | 14 kts | 72° |
| 2026-05-07 06:06 | 52.34587 | 13.47035 | 160 ft | 4 kts | 68° |
| 2026-05-07 06:06 | 52.34605 | 13.47105 | 160 ft | 14 kts | 68° |
| 2026-05-07 06:06 | 52.34716 | 13.47580 | 160 ft | 84 kts | 68° |
| 2026-05-07 06:06 | 52.35017 | 13.48841 | 161 ft | 152 kts | 69° |
| 2026-05-07 06:07 | 52.35393 | 13.50618 | 736 ft | 165 kts | 74° |
| 2026-05-07 06:07 | 52.35495 | 13.52433 | 1713 ft | 163 kts | 85° |
| 2026-05-07 06:07 | 52.35564 | 13.54464 | 2140 ft | 194 kts | 83° |
| 2026-05-07 06:07 | 52.35714 | 13.56761 | 2784 ft | 209 kts | 81° |
| 2026-05-07 06:08 | 52.35917 | 13.59143 | 3633 ft | 215 kts | 80° |
| 2026-05-07 06:08 | 52.36151 | 13.61594 | 4464 ft | 221 kts | 79° |
| 2026-05-07 06:08 | 52.36404 | 13.64109 | 5252 ft | 227 kts | 78° |
| 2026-05-07 06:08 | 52.36657 | 13.66687 | 5800 ft | 232 kts | 81° |
| 2026-05-07 06:09 | 52.36551 | 13.69353 | 6446 ft | 242 kts | 105° |
| 2026-05-07 06:09 | 52.35657 | 13.71701 | 7355 ft | 247 kts | 134° |
| 2026-05-07 06:09 | 52.34353 | 13.73528 | 8443 ft | 247 kts | 141° |
| 2026-05-07 06:09 | 52.32893 | 13.75036 | 9468 ft | 252 kts | 157° |
| 2026-05-07 06:10 | 52.31152 | 13.75488 | 10321 ft | 263 kts | 186° |
| 2026-05-07 06:10 | 52.29307 | 13.74754 | 10800 ft | 286 kts | 200° |
| 2026-05-07 06:10 | 52.27460 | 13.73212 | 11188 ft | 312 kts | 217° |
| 2026-05-07 06:10 | 52.26003 | 13.70439 | 11541 ft | 337 kts | 243° |
| 2026-05-07 06:11 | 52.25350 | 13.66669 | 12026 ft | 355 kts | 264° |
| 2026-05-07 06:11 | 52.25337 | 13.62592 | 12846 ft | 363 kts | 274° |
| 2026-05-07 06:11 | 52.25619 | 13.58461 | 13776 ft | 369 kts | 278° |
| 2026-05-07 06:11 | 52.25993 | 13.54293 | 14607 ft | 374 kts | 278° |
| 2026-05-07 06:12 | 52.26357 | 13.50070 | 15457 ft | 378 kts | 276° |
| 2026-05-07 06:12 | 52.26674 | 13.45787 | 16311 ft | 382 kts | 275° |
| 2026-05-07 06:12 | 52.26941 | 13.41448 | 17183 ft | 386 kts | 274° |
| 2026-05-07 06:12 | 52.27171 | 13.37065 | 18114 ft | 391 kts | 273° |
| 2026-05-07 06:13 | 52.27381 | 13.32594 | 18901 ft | 397 kts | 272° |
| 2026-05-07 06:13 | 52.27583 | 13.28084 | 19764 ft | 401 kts | 272° |
| 2026-05-07 06:13 | 52.27784 | 13.23520 | 20626 ft | 405 kts | 272° |
| 2026-05-07 06:13 | 52.27986 | 13.18915 | 21451 ft | 409 kts | 272° |
| 2026-05-07 06:14 | 52.28191 | 13.14255 | 22265 ft | 413 kts | 272° |
| 2026-05-07 06:14 | 52.28398 | 13.09552 | 23076 ft | 417 kts | 272° |
| 2026-05-07 06:14 | 52.28607 | 13.04795 | 23824 ft | 422 kts | 272° |
| 2026-05-07 06:14 | 52.28817 | 12.99986 | 24435 ft | 428 kts | 272° |
| 2026-05-07 06:15 | 52.29025 | 12.95179 | 25031 ft | 433 kts | 272° |
| 2026-05-07 06:15 | 52.29237 | 12.90246 | 25710 ft | 437 kts | 272° |
| 2026-05-07 06:15 | 52.29448 | 12.85273 | 26364 ft | 441 kts | 271° |
| 2026-05-07 06:15 | 52.29660 | 12.80246 | 26986 ft | 446 kts | 271° |
| 2026-05-07 06:16 | 52.29871 | 12.75157 | 27611 ft | 450 kts | 271° |
| 2026-05-07 06:16 | 52.30083 | 12.70031 | 28225 ft | 455 kts | 271° |
| 2026-05-07 06:16 | 52.30293 | 12.64847 | 28813 ft | 460 kts | 271° |
| 2026-05-07 06:16 | 52.30504 | 12.59610 | 29410 ft | 464 kts | 270° |
| 2026-05-07 06:17 | 52.30715 | 12.54316 | 29982 ft | 468 kts | 270° |
| 2026-05-07 06:17 | 52.30924 | 12.48985 | 30468 ft | 472 kts | 270° |
| 2026-05-07 06:17 | 52.31134 | 12.43623 | 31035 ft | 473 kts | 270° |
| 2026-05-07 06:17 | 52.31342 | 12.38243 | 31568 ft | 475 kts | 270° |
| 2026-05-07 06:18 | 52.31548 | 12.32851 | 32053 ft | 477 kts | 270° |
| 2026-05-07 06:18 | 52.31752 | 12.27430 | 32522 ft | 478 kts | 270° |
| 2026-05-07 06:18 | 52.31954 | 12.22021 | 33176 ft | 475 kts | 269° |
| 2026-05-07 06:18 | 52.32153 | 12.16646 | 33924 ft | 471 kts | 269° |
| 2026-05-07 06:19 | 52.32348 | 12.11317 | 34474 ft | 468 kts | 269° |
| 2026-05-07 06:19 | 52.32538 | 12.06002 | 34862 ft | 469 kts | 269° |
| 2026-05-07 06:19 | 52.32726 | 12.00664 | 35199 ft | 471 kts | 270° |
| 2026-05-07 06:19 | 52.32908 | 11.95390 | 35588 ft | 472 kts | 270° |
| 2026-05-07 06:20 | 52.33092 | 11.90030 | 35926 ft | 473 kts | 270° |
| 2026-05-07 06:20 | 52.33274 | 11.84656 | 36261 ft | 474 kts | 270° |
| 2026-05-07 06:20 | 52.33454 | 11.79276 | 36622 ft | 474 kts | 270° |
| 2026-05-07 06:20 | 52.33632 | 11.73884 | 36985 ft | 474 kts | 270° |
| 2026-05-07 06:21 | 52.33807 | 11.68500 | 37338 ft | 475 kts | 271° |
| 2026-05-07 06:21 | 52.33981 | 11.63111 | 37675 ft | 475 kts | 271° |
| 2026-05-07 06:21 | 52.34151 | 11.57717 | 38018 ft | 475 kts | 271° |
| 2026-05-07 06:21 | 52.34320 | 11.52323 | 38360 ft | 475 kts | 271° |
| 2026-05-07 06:22 | 52.34486 | 11.46922 | 38669 ft | 475 kts | 271° |
| 2026-05-07 06:22 | 52.34810 | 11.36110 | 39174 ft | 476 kts | 271° |
| 2026-05-07 06:22 | 52.34968 | 11.30703 | 39415 ft | 476 kts | 271° |
| 2026-05-07 06:23 | 52.35124 | 11.25297 | 39640 ft | 476 kts | 271° |
| 2026-05-07 06:23 | 52.35278 | 11.19896 | 39870 ft | 476 kts | 271° |
| 2026-05-07 06:23 | 52.35578 | 11.09058 | 39956 ft | 476 kts | 271° |
| 2026-05-07 06:24 | 52.35867 | 10.98303 | 39956 ft | 476 kts | 271° |
| 2026-05-07 06:24 | 52.36147 | 10.87470 | 39962 ft | 477 kts | 271° |
| 2026-05-07 06:25 | 52.35913 | 10.76685 | 39963 ft | 474 kts | 259° |
| 2026-05-07 06:25 | 52.34779 | 10.66067 | 39966 ft | 474 kts | 258° |
| 2026-05-07 06:26 | 52.33487 | 10.55510 | 39966 ft | 474 kts | 257° |
| 2026-05-07 06:26 | 52.32169 | 10.44944 | 39966 ft | 474 kts | 257° |
| 2026-05-07 06:27 | 52.30858 | 10.34387 | 39957 ft | 474 kts | 257° |
| 2026-05-07 06:27 | 52.29545 | 10.23814 | 39949 ft | 475 kts | 257° |
| 2026-05-07 06:28 | 52.28225 | 10.13245 | 39952 ft | 475 kts | 257° |
| 2026-05-07 06:28 | 52.26896 | 10.02690 | 39964 ft | 475 kts | 257° |
| 2026-05-07 06:29 | 52.25567 | 9.92180 | 39968 ft | 475 kts | 257° |
| 2026-05-07 06:29 | 52.24901 | 9.81443 | 39974 ft | 477 kts | 265° |
| 2026-05-07 06:30 | 52.24580 | 9.70639 | 39975 ft | 477 kts | 266° |
| 2026-05-07 06:30 | 52.24306 | 9.59806 | 39973 ft | 477 kts | 266° |
| 2026-05-07 06:31 | 52.24017 | 9.48998 | 39979 ft | 477 kts | 266° |
| 2026-05-07 06:31 | 52.23706 | 9.38171 | 39973 ft | 477 kts | 266° |
| 2026-05-07 06:32 | 52.23381 | 9.27350 | 39963 ft | 477 kts | 266° |
| 2026-05-07 06:32 | 52.23014 | 9.16541 | 39967 ft | 477 kts | 265° |
| 2026-05-07 06:33 | 52.22584 | 9.05752 | 39966 ft | 477 kts | 265° |
| 2026-05-07 06:33 | 52.22148 | 8.94955 | 39966 ft | 477 kts | 265° |
| 2026-05-07 06:34 | 52.21712 | 8.84156 | 39967 ft | 477 kts | 265° |
| 2026-05-07 06:34 | 52.21270 | 8.73363 | 39970 ft | 477 kts | 265° |
| 2026-05-07 06:35 | 52.20819 | 8.62581 | 39962 ft | 477 kts | 265° |
| 2026-05-07 06:35 | 52.20358 | 8.51792 | 39976 ft | 477 kts | 265° |
| 2026-05-07 06:36 | 52.19889 | 8.41059 | 39976 ft | 478 kts | 264° |
| 2026-05-07 06:36 | 52.19407 | 8.30259 | 39979 ft | 477 kts | 265° |
| 2026-05-07 06:37 | 52.18915 | 8.19475 | 39986 ft | 477 kts | 264° |
| 2026-05-07 06:37 | 52.18414 | 8.08681 | 40003 ft | 477 kts | 264° |
| 2026-05-07 06:38 | 52.17904 | 7.97912 | 40007 ft | 478 kts | 264° |
| 2026-05-07 06:38 | 52.17471 | 7.88937 | 40019 ft | 477 kts | 264° |
| 2026-05-07 06:39 | 52.16941 | 7.78146 | 40020 ft | 478 kts | 264° |
| 2026-05-07 06:39 | 52.16402 | 7.67365 | 40022 ft | 478 kts | 264° |
| 2026-05-07 06:40 | 52.15852 | 7.56578 | 40019 ft | 478 kts | 264° |
| 2026-05-07 06:40 | 52.15293 | 7.45794 | 40008 ft | 478 kts | 264° |
| 2026-05-07 06:41 | 52.14724 | 7.35013 | 40005 ft | 478 kts | 264° |
| 2026-05-07 06:41 | 52.14145 | 7.24239 | 40010 ft | 478 kts | 264° |
| 2026-05-07 06:42 | 52.13557 | 7.13469 | 40008 ft | 478 kts | 264° |
| 2026-05-07 06:42 | 52.12958 | 7.02677 | 40019 ft | 478 kts | 264° |
| 2026-05-07 06:43 | 52.12354 | 6.91988 | 40019 ft | 478 kts | 264° |
| 2026-05-07 06:43 | 52.11731 | 6.81142 | 40017 ft | 478 kts | 264° |
| 2026-05-07 06:44 | 52.11103 | 6.70370 | 40007 ft | 478 kts | 264° |
| 2026-05-07 06:44 | 52.10465 | 6.59610 | 40027 ft | 478 kts | 264° |
| 2026-05-07 06:45 | 52.09818 | 6.48848 | 40024 ft | 478 kts | 263° |
| 2026-05-07 06:45 | 52.09164 | 6.38158 | 40033 ft | 478 kts | 263° |
| 2026-05-07 06:46 | 52.08496 | 6.27395 | 40040 ft | 478 kts | 263° |
| 2026-05-07 06:46 | 52.07819 | 6.16635 | 40032 ft | 478 kts | 263° |
| 2026-05-07 06:47 | 52.07132 | 6.05882 | 40046 ft | 478 kts | 263° |
| 2026-05-07 06:47 | 52.06435 | 5.95132 | 40056 ft | 478 kts | 263° |
| 2026-05-07 06:48 | 52.05728 | 5.84378 | 40047 ft | 478 kts | 263° |
| 2026-05-07 06:48 | 52.05012 | 5.73643 | 40045 ft | 478 kts | 263° |
| 2026-05-07 06:49 | 52.04285 | 5.62897 | 40047 ft | 478 kts | 263° |
| 2026-05-07 06:49 | 52.03549 | 5.52161 | 40044 ft | 478 kts | 263° |
| 2026-05-07 06:50 | 52.02803 | 5.41436 | 40048 ft | 478 kts | 263° |
| 2026-05-07 06:50 | 52.02048 | 5.30707 | 40047 ft | 478 kts | 263° |
| 2026-05-07 06:51 | 52.01289 | 5.20063 | 40056 ft | 478 kts | 263° |
| 2026-05-07 06:51 | 52.00514 | 5.09349 | 40055 ft | 478 kts | 263° |
| 2026-05-07 06:52 | 51.99731 | 4.98654 | 40055 ft | 478 kts | 263° |
| 2026-05-07 06:52 | 51.98937 | 4.87941 | 40062 ft | 478 kts | 263° |
| 2026-05-07 06:53 | 51.98134 | 4.77245 | 40058 ft | 478 kts | 263° |
| 2026-05-07 06:53 | 51.97321 | 4.66552 | 40048 ft | 478 kts | 262° |
| 2026-05-07 06:54 | 51.96499 | 4.55863 | 40046 ft | 478 kts | 262° |
| 2026-05-07 06:54 | 51.95667 | 4.45177 | 40044 ft | 478 kts | 262° |
| 2026-05-07 06:55 | 51.94825 | 4.34494 | 40051 ft | 478 kts | 262° |
| 2026-05-07 06:55 | 51.93974 | 4.23817 | 40051 ft | 478 kts | 262° |
| 2026-05-07 06:56 | 51.93112 | 4.13143 | 40053 ft | 478 kts | 262° |
| 2026-05-07 06:56 | 51.92242 | 4.02471 | 40050 ft | 478 kts | 262° |
| 2026-05-07 06:57 | 51.91362 | 3.91808 | 40050 ft | 478 kts | 262° |
| 2026-05-07 06:57 | 51.90472 | 3.81150 | 40053 ft | 478 kts | 262° |
| 2026-05-07 06:58 | 51.89572 | 3.70491 | 40056 ft | 478 kts | 262° |
| 2026-05-07 06:58 | 51.88662 | 3.59829 | 40052 ft | 478 kts | 262° |
| 2026-05-07 06:59 | 51.87744 | 3.49188 | 40062 ft | 478 kts | 262° |
| 2026-05-07 06:59 | 51.86815 | 3.38538 | 40063 ft | 478 kts | 262° |
| 2026-05-07 07:00 | 51.85875 | 3.27886 | 40078 ft | 478 kts | 261° |
| 2026-05-07 07:00 | 51.84927 | 3.17241 | 39995 ft | 478 kts | 261° |
| 2026-05-07 07:01 | 51.84485 | 3.11915 | 39774 ft | 478 kts | 263° |
| 2026-05-07 07:01 | 51.84125 | 3.06564 | 39541 ft | 478 kts | 264° |
| 2026-05-07 07:01 | 51.83803 | 3.01215 | 39316 ft | 479 kts | 264° |
| 2026-05-07 07:01 | 51.83485 | 2.95850 | 39093 ft | 479 kts | 264° |
| 2026-05-07 07:02 | 51.83161 | 2.90494 | 38864 ft | 479 kts | 264° |
| 2026-05-07 07:02 | 51.82824 | 2.85146 | 38624 ft | 479 kts | 264° |
| 2026-05-07 07:02 | 51.82475 | 2.79788 | 38340 ft | 479 kts | 264° |
| 2026-05-07 07:02 | 51.82124 | 2.74518 | 38066 ft | 478 kts | 264° |
| 2026-05-07 07:03 | 51.81763 | 2.69187 | 37790 ft | 478 kts | 263° |
| 2026-05-07 07:03 | 51.81399 | 2.63841 | 37526 ft | 478 kts | 264° |
| 2026-05-07 07:03 | 51.81033 | 2.58505 | 37251 ft | 478 kts | 263° |
| 2026-05-07 07:03 | 51.80662 | 2.53172 | 36981 ft | 478 kts | 263° |
| 2026-05-07 07:04 | 51.80287 | 2.47852 | 36542 ft | 474 kts | 263° |
| 2026-05-07 07:04 | 51.79913 | 2.42570 | 35905 ft | 473 kts | 263° |
| 2026-05-07 07:04 | 51.79538 | 2.37292 | 35209 ft | 473 kts | 264° |
| 2026-05-07 07:04 | 51.79160 | 2.32006 | 34464 ft | 475 kts | 264° |
| 2026-05-07 07:05 | 51.78779 | 2.26696 | 33602 ft | 478 kts | 264° |
| 2026-05-07 07:05 | 51.78395 | 2.21359 | 32762 ft | 477 kts | 263° |
| 2026-05-07 07:05 | 51.78059 | 2.16040 | 31946 ft | 476 kts | 265° |
| 2026-05-07 07:05 | 51.77758 | 2.10716 | 31115 ft | 476 kts | 265° |
| 2026-05-07 07:06 | 51.77455 | 2.05394 | 30244 ft | 477 kts | 265° |
| 2026-05-07 07:06 | 51.77144 | 2.00071 | 29475 ft | 473 kts | 264° |
| 2026-05-07 07:06 | 51.76834 | 1.94832 | 28906 ft | 465 kts | 264° |
| 2026-05-07 07:06 | 51.76523 | 1.89670 | 28318 ft | 459 kts | 264° |
| 2026-05-07 07:07 | 51.76213 | 1.84568 | 27727 ft | 454 kts | 264° |
| 2026-05-07 07:07 | 51.75905 | 1.79531 | 27145 ft | 448 kts | 264° |
| 2026-05-07 07:07 | 51.75597 | 1.74547 | 26578 ft | 444 kts | 264° |
| 2026-05-07 07:07 | 51.75291 | 1.69625 | 25994 ft | 439 kts | 264° |
| 2026-05-07 07:08 | 51.74986 | 1.64752 | 25446 ft | 435 kts | 264° |
| 2026-05-07 07:08 | 51.74681 | 1.59921 | 24863 ft | 431 kts | 264° |
| 2026-05-07 07:08 | 51.74375 | 1.55062 | 24207 ft | 439 kts | 264° |
| 2026-05-07 07:08 | 51.74060 | 1.50138 | 23538 ft | 442 kts | 264° |
| 2026-05-07 07:09 | 51.73741 | 1.45211 | 22810 ft | 439 kts | 264° |
| 2026-05-07 07:09 | 51.73426 | 1.40352 | 22159 ft | 433 kts | 264° |
| 2026-05-07 07:09 | 51.73111 | 1.35538 | 21519 ft | 429 kts | 264° |
| 2026-05-07 07:09 | 51.72803 | 1.30841 | 20880 ft | 425 kts | 264° |
| 2026-05-07 07:10 | 51.72491 | 1.26121 | 20248 ft | 421 kts | 264° |
| 2026-05-07 07:10 | 51.72180 | 1.21439 | 19627 ft | 418 kts | 264° |
| 2026-05-07 07:10 | 51.71870 | 1.16805 | 19016 ft | 414 kts | 264° |
| 2026-05-07 07:10 | 51.71560 | 1.12196 | 18388 ft | 412 kts | 264° |
| 2026-05-07 07:11 | 51.71251 | 1.07626 | 17708 ft | 407 kts | 264° |
| 2026-05-07 07:11 | 51.70944 | 1.03122 | 17097 ft | 402 kts | 264° |
| 2026-05-07 07:11 | 51.70639 | 0.98673 | 16501 ft | 398 kts | 264° |
| 2026-05-07 07:11 | 51.70335 | 0.94241 | 15913 ft | 396 kts | 264° |
| 2026-05-07 07:12 | 51.70034 | 0.89833 | 15461 ft | 395 kts | 264° |
| 2026-05-07 07:12 | 51.69728 | 0.85453 | 14971 ft | 392 kts | 264° |
| 2026-05-07 07:12 | 51.69436 | 0.81297 | 14498 ft | 390 kts | 264° |
| 2026-05-07 07:12 | 51.69186 | 0.77766 | 14117 ft | 388 kts | 264° |
| 2026-05-07 07:13 | 51.68881 | 0.73459 | 13607 ft | 385 kts | 264° |
| 2026-05-07 07:13 | 51.68577 | 0.69177 | 13109 ft | 383 kts | 264° |
| 2026-05-07 07:13 | 51.68277 | 0.64929 | 12644 ft | 380 kts | 264° |
| 2026-05-07 07:13 | 51.67975 | 0.60721 | 12222 ft | 375 kts | 264° |
| 2026-05-07 07:14 | 51.67678 | 0.56622 | 11983 ft | 361 kts | 264° |
| 2026-05-07 07:14 | 51.67391 | 0.52693 | 11750 ft | 346 kts | 264° |
| 2026-05-07 07:14 | 51.67116 | 0.48921 | 11535 ft | 332 kts | 264° |
| 2026-05-07 07:14 | 51.66859 | 0.45346 | 11351 ft | 319 kts | 264° |
| 2026-05-07 07:15 | 51.66602 | 0.41867 | 11165 ft | 307 kts | 264° |
| 2026-05-07 07:15 | 51.66353 | 0.38516 | 10937 ft | 297 kts | 264° |
| 2026-05-07 07:15 | 51.66109 | 0.35235 | 10530 ft | 294 kts | 264° |
| 2026-05-07 07:15 | 51.65866 | 0.31975 | 10117 ft | 292 kts | 264° |
| 2026-05-07 07:16 | 51.65624 | 0.28738 | 9682 ft | 290 kts | 264° |
| 2026-05-07 07:16 | 51.65384 | 0.25527 | 9235 ft | 287 kts | 263° |
| 2026-05-07 07:16 | 51.65146 | 0.22342 | 8792 ft | 285 kts | 263° |
| 2026-05-07 07:16 | 51.64911 | 0.19212 | 8530 ft | 277 kts | 262° |
| 2026-05-07 07:17 | 51.64686 | 0.16234 | 8311 ft | 258 kts | 262° |
| 2026-05-07 07:17 | 51.64486 | 0.13462 | 8000 ft | 243 kts | 263° |
| 2026-05-07 07:17 | 51.64339 | 0.10773 | 7548 ft | 240 kts | 264° |
| 2026-05-07 07:17 | 51.64202 | 0.08102 | 7219 ft | 238 kts | 263° |
| 2026-05-07 07:18 | 51.64063 | 0.05459 | 6958 ft | 234 kts | 263° |
| 2026-05-07 07:18 | 51.63925 | 0.02898 | 6943 ft | 229 kts | 263° |
| 2026-05-07 07:18 | 51.63785 | 0.00346 | 6946 ft | 227 kts | 263° |
| 2026-05-07 07:18 | 51.63648 | -0.02118 | 6950 ft | 219 kts | 264° |
| 2026-05-07 07:19 | 51.63512 | -0.04542 | 6956 ft | 216 kts | 264° |
| 2026-05-07 07:19 | 51.63377 | -0.06952 | 6956 ft | 216 kts | 264° |
| 2026-05-07 07:19 | 51.63242 | -0.09351 | 6954 ft | 215 kts | 264° |
| 2026-05-07 07:19 | 51.63108 | -0.11717 | 6954 ft | 216 kts | 264° |
| 2026-05-07 07:20 | 51.62971 | -0.14125 | 6953 ft | 216 kts | 264° |
| 2026-05-07 07:20 | 51.62833 | -0.16537 | 6960 ft | 216 kts | 264° |
| 2026-05-07 07:20 | 51.62695 | -0.18945 | 6953 ft | 216 kts | 264° |
| 2026-05-07 07:20 | 51.62557 | -0.21347 | 6955 ft | 215 kts | 264° |
| 2026-05-07 07:21 | 51.62419 | -0.23748 | 6955 ft | 216 kts | 264° |
| 2026-05-07 07:21 | 51.62280 | -0.26152 | 6953 ft | 215 kts | 264° |
| 2026-05-07 07:21 | 51.62141 | -0.28548 | 6959 ft | 219 kts | 264° |
| 2026-05-07 07:21 | 51.61992 | -0.31081 | 6950 ft | 230 kts | 264° |
| 2026-05-07 07:22 | 51.61848 | -0.33552 | 6944 ft | 214 kts | 264° |
| 2026-05-07 07:22 | 51.61711 | -0.35895 | 6952 ft | 209 kts | 264° |
| 2026-05-07 07:22 | 51.61574 | -0.38215 | 6950 ft | 208 kts | 264° |
| 2026-05-07 07:22 | 51.61436 | -0.40534 | 6955 ft | 209 kts | 264° |
| 2026-05-07 07:23 | 51.61298 | -0.42856 | 6953 ft | 209 kts | 264° |
| 2026-05-07 07:23 | 51.61160 | -0.45183 | 6949 ft | 209 kts | 264° |
| 2026-05-07 07:23 | 51.61021 | -0.47509 | 6951 ft | 209 kts | 264° |
| 2026-05-07 07:23 | 51.60882 | -0.49828 | 6951 ft | 208 kts | 264° |
| 2026-05-07 07:24 | 51.60742 | -0.52148 | 6952 ft | 208 kts | 264° |
| 2026-05-07 07:24 | 51.60602 | -0.54468 | 6956 ft | 208 kts | 264° |
| 2026-05-07 07:24 | 51.60462 | -0.56785 | 6954 ft | 208 kts | 264° |
| 2026-05-07 07:24 | 51.60322 | -0.59093 | 6949 ft | 207 kts | 264° |
| 2026-05-07 07:25 | 51.60040 | -0.63718 | 6954 ft | 208 kts | 264° |
| 2026-05-07 07:25 | 51.59900 | -0.66033 | 6924 ft | 208 kts | 264° |
| 2026-05-07 07:25 | 51.59759 | -0.68351 | 6865 ft | 208 kts | 264° |
| 2026-05-07 07:26 | 51.59615 | -0.70660 | 6809 ft | 208 kts | 264° |
| 2026-05-07 07:26 | 51.59484 | -0.72188 | 6748 ft | 208 kts | 258° |
| 2026-05-07 07:26 | 51.58955 | -0.74332 | 6559 ft | 207 kts | 236° |
| 2026-05-07 07:26 | 51.57928 | -0.75914 | 6305 ft | 205 kts | 211° |
| 2026-05-07 07:27 | 51.56614 | -0.76795 | 6051 ft | 205 kts | 199° |
| 2026-05-07 07:27 | 51.55243 | -0.77454 | 5780 ft | 206 kts | 197° |
| 2026-05-07 07:27 | 51.53865 | -0.78100 | 5476 ft | 208 kts | 198° |
| 2026-05-07 07:27 | 51.52440 | -0.78648 | 5028 ft | 215 kts | 188° |
| 2026-05-07 07:28 | 51.50942 | -0.78523 | 4522 ft | 217 kts | 166° |
| 2026-05-07 07:28 | 51.49590 | -0.77517 | 4063 ft | 214 kts | 147° |
| 2026-05-07 07:28 | 51.48410 | -0.76087 | 3599 ft | 211 kts | 136° |
| 2026-05-07 07:28 | 51.47683 | -0.74118 | 3214 ft | 203 kts | 104° |
| 2026-05-07 07:29 | 51.47629 | -0.71946 | 3038 ft | 191 kts | 85° |
| 2026-05-07 07:29 | 51.47709 | -0.69891 | 2800 ft | 179 kts | 91° |
| 2026-05-07 07:29 | 51.47679 | -0.67983 | 2586 ft | 169 kts | 91° |
| 2026-05-07 07:29 | 51.47683 | -0.66119 | 2332 ft | 167 kts | 90° |
| 2026-05-07 07:30 | 51.47694 | -0.64262 | 2090 ft | 165 kts | 91° |
| 2026-05-07 07:30 | 51.47699 | -0.62440 | 1869 ft | 161 kts | 91° |
| 2026-05-07 07:30 | 51.47705 | -0.60661 | 1645 ft | 159 kts | 90° |
| 2026-05-07 07:30 | 51.47711 | -0.58921 | 1420 ft | 151 kts | 91° |
| 2026-05-07 07:31 | 51.47716 | -0.57292 | 1215 ft | 141 kts | 90° |
| 2026-05-07 07:31 | 51.47722 | -0.55766 | 1025 ft | 134 kts | 90° |
| 2026-05-07 07:31 | 51.47727 | -0.54284 | 830 ft | 133 kts | 90° |
| 2026-05-07 07:31 | 51.47733 | -0.52802 | 652 ft | 133 kts | 90° |
| 2026-05-07 07:32 | 51.47738 | -0.51318 | 466 ft | 133 kts | 90° |
| 2026-05-07 07:32 | 51.47744 | -0.49838 | 294 ft | 132 kts | 90° |
| 2026-05-07 07:32 | 51.47749 | -0.48366 | 127 ft | 132 kts | 91° |
| 2026-05-07 07:32 | 51.47756 | -0.46974 | 97 ft | 107 kts | 90° |
| 2026-05-07 07:33 | 51.47760 | -0.46070 | 94 ft | 56 kts | 89° |
| 2026-05-07 07:33 | 51.47762 | -0.45674 | 92 ft | 25 kts | 90° |
| 2026-05-07 07:33 | 51.47698 | -0.45480 | 96 ft | 17 kts | 162° |
| 2026-05-07 07:33 | 51.47616 | -0.45440 | 97 ft | 12 kts | 134° |
| 2026-05-07 07:34 | 51.47598 | -0.45301 | 94 ft | 14 kts | 90° |
| 2026-05-07 07:34 | 51.47598 | -0.45122 | 92 ft | 18 kts | 90° |
| 2026-05-07 07:34 | 51.47598 | -0.44905 | 92 ft | 21 kts | 90° |
| 2026-05-07 07:34 | 51.47599 | -0.44653 | 92 ft | 24 kts | 90° |
| 2026-05-07 07:35 | 51.47599 | -0.44375 | 92 ft | 22 kts | 91° |
| 2026-05-07 07:35 | 51.47596 | -0.44156 | 96 ft | 16 kts | 95° |
| 2026-05-07 07:35 | 51.47511 | -0.44061 | 96 ft | 17 kts | 175° |
| 2026-05-07 07:35 | 51.47402 | -0.44059 | 94 ft | 15 kts | 180° |
| 2026-05-07 07:36 | 51.47289 | -0.44057 | 92 ft | 14 kts | 180° |
| 2026-05-07 07:36 | 51.47181 | -0.44056 | 92 ft | 16 kts | 179° |
| 2026-05-07 07:36 | 51.47095 | -0.44056 | 92 ft | 0 kts | 180° |
| 2026-05-07 07:37 | 51.47080 | -0.44056 | 94 ft | 5 kts | 180° |
| 2026-05-07 07:37 | 51.47033 | -0.44056 | 95 ft | 9 kts | 179° |
| 2026-05-07 07:37 | 51.46984 | -0.44055 | 96 ft | 3 kts | 180° |
| 2026-05-07 07:37 | 51.46958 | -0.44058 | 96 ft | 3 kts | 198° |
| 2026-05-07 07:38 | 51.46943 | -0.44096 | 97 ft | 6 kts | 252° |
| 2026-05-07 07:38 | 51.46940 | -0.44137 | 97 ft | 4 kts | 264° |
| 2026-05-07 07:38 | 51.46939 | -0.44172 | 95 ft | 4 kts | 268° |
| 2026-05-07 07:38 | 51.46939 | -0.44193 | 92 ft | 1 kts | 269° |
| 2026-05-07 07:39 | 51.46939 | -0.44198 | 96 ft | 0 kts | 269° |